Bellevue, Washington
Current Conditions -  °F | °C
As of 3:53 PM on Thursday 18 Dec 2014 (Local Time) from KBFI Reporting Station
Light Rain Light Rain  
Wind Chill: 50°   Ceiling: 6000
Heat Index: 50°   Visibility: 5mi
Dew Point: 44°   Wind: 9mph
Humidity: 80%   Direction: 140°SE
Pressure: 29.81"   Gusts: NA
Location:  47.61°N, 122.18°W
Report Text: KBFI 182353Z 14008KT 5SM -RA SCT044 BKN060 OVC070 10/07 A2981 RMK AO2 RAE30B47 SLP094 P0003 60006 T01000067 10106 20089 56012
Loading
Personal Weather Stations






























Interactive Weather Map New forecast layout! Learn more

10-Day Weather Forecast

Advertisements
Track Severe Weather on mobile